Time;durP1;ratioP1;P1;durP2;ratioP2;P2;SDS_P1;SDS_P2;PMS_P1;PMS_P2;Temp;Humidity;BMP_temperature;BMP_pressure;BME280_temperature;BME280_humidity;BME280_pressure;Samples;Min_cycle;Max_cycle;Signal;HPM_P1;HPM_P2
2022/11/05 00:10:21;;;;;;;1.13;0.98;;;9.20;99.90;;;;;;5112234;28;20050;-71
2022/11/05 00:18:15;;;;;;;2.05;1.10;;;9.20;99.90;;;;;;5116471;28;20518;-71
2022/11/05 00:20:41;;;;;;;1.73;1.00;;;9.20;99.90;;;;;;5116904;28;20039;-71
2022/11/05 00:25:54;;;;;;;1.23;0.90;;;9.30;99.90;;;;;;5115947;28;20053;-71
2022/11/05 00:28:20;;;;;;;2.25;1.10;;;9.30;99.90;;;;;;5116399;28;20503;-71
2022/11/05 00:30:45;;;;;;;1.50;0.90;;;9.30;99.90;;;;;;5100911;28;20024;-70
2022/11/05 00:33:11;;;;;;;2.17;1.15;;;9.30;99.90;;;;;;5095299;28;20023;-71
2022/11/05 00:35:37;;;;;;;2.55;1.20;;;9.30;99.90;;;;;;5095969;28;20032;-71
2022/11/05 00:38:02;;;;;;;1.65;1.00;;;9.40;99.90;;;;;;5093943;28;20070;-71
2022/11/05 00:40:28;;;;;;;1.25;1.15;;;9.40;99.90;;;;;;5095846;28;20453;-71
2022/11/05 00:45:38;;;;;;;2.28;1.02;;;9.40;99.90;;;;;;5095539;28;20500;-71
2022/11/05 00:50:59;;;;;;;0.93;0.85;;;9.50;99.90;;;;;;5075191;28;20045;-72
2022/11/05 00:53:24;;;;;;;1.58;1.00;;;9.50;99.90;;;;;;5095829;28;20031;-71
2022/11/05 00:55:50;;;;;;;1.65;0.90;;;9.50;99.90;;;;;;5095291;28;20024;-75
2022/11/05 00:58:18;;;;;;;1.20;0.80;;;9.50;99.90;;;;;;5095629;28;20032;-70
2022/11/05 01:00:52;;;;;;;2.53;0.90;;;9.50;99.90;;;;;;5095396;28;20044;-71
2022/11/05 01:03:20;;;;;;;1.70;0.90;;;9.50;99.90;;;;;;5095603;28;20024;-71
2022/11/05 01:05:48;;;;;;;1.48;1.00;;;9.50;99.90;;;;;;5095673;28;20060;-71
2022/11/05 01:08:16;;;;;;;1.35;0.82;;;9.50;99.90;;;;;;5094987;28;20020;-71
2022/11/05 01:10:44;;;;;;;1.40;0.90;;;9.50;99.90;;;;;;5095435;28;20500;-71
2022/11/05 01:13:11;;;;;;;1.23;0.90;;;9.50;99.90;;;;;;5094854;28;20034;-71
2022/11/05 01:15:37;;;;;;;1.25;0.88;;;9.50;99.90;;;;;;5095237;28;20028;-71
2022/11/05 01:18:03;;;;;;;1.27;1.17;;;9.50;99.90;;;;;;5094856;28;20077;-71
2022/11/05 01:20:29;;;;;;;2.45;1.08;;;9.50;99.90;;;;;;5095099;28;20034;-71
2022/11/05 01:22:56;;;;;;;1.67;1.02;;;9.50;99.90;;;;;;5093355;28;20024;-72
2022/11/05 01:25:22;;;;;;;1.42;1.00;;;9.50;99.90;;;;;;5095174;28;20028;-71
2022/11/05 01:27:47;;;;;;;1.63;1.00;;;9.50;99.90;;;;;;5095332;28;20110;-71
2022/11/05 01:30:13;;;;;;;2.20;1.10;;;9.50;99.90;;;;;;5094538;28;20111;-70
2022/11/05 01:32:39;;;;;;;1.98;1.48;;;9.50;99.90;;;;;;5094970;28;20024;-71
2022/11/05 01:35:06;;;;;;;2.33;1.30;;;9.50;99.90;;;;;;5094126;28;20087;-71
2022/11/05 01:37:33;;;;;;;1.98;1.55;;;9.50;99.90;;;;;;5094920;28;20120;-71
2022/11/05 01:39:59;;;;;;;2.03;1.25;;;9.50;99.90;;;;;;5094339;28;20035;-71
2022/11/05 01:42:26;;;;;;;2.13;1.50;;;9.50;99.90;;;;;;5094702;28;20036;-71
2022/11/05 01:44:54;;;;;;;3.25;1.40;;;9.50;99.90;;;;;;5094725;28;20031;-70
2022/11/05 01:47:52;;;;;;;1.70;1.20;;;9.50;99.90;;;;;;5094640;28;20073;-71
2022/11/05 01:50:23;;;;;;;2.20;1.20;;;9.50;99.90;;;;;;5081694;28;20087;-71
2022/11/05 01:52:53;;;;;;;2.08;1.08;;;9.50;99.90;;;;;;5094596;28;20039;-70
2022/11/05 01:55:24;;;;;;;3.97;1.50;;;9.50;99.90;;;;;;5101558;28;20047;-70
2022/11/05 01:57:51;;;;;;;;;;;9.50;99.90;;;;;;5115278;28;20048;-72
2022/11/05 02:00:17;;;;;;;2.97;1.20;;;9.40;99.90;;;;;;5114367;28;19911;-71
2022/11/05 02:02:43;;;;;;;1.60;1.38;;;9.50;99.90;;;;;;5114527;28;20065;-71
2022/11/05 02:05:11;;;;;;;1.83;1.27;;;9.50;99.90;;;;;;5113892;28;20473;-70
2022/11/05 02:07:37;;;;;;;5.13;1.30;;;9.50;99.90;;;;;;5114564;28;20050;-71
2022/11/05 02:10:12;;;;;;;1.88;1.30;;;9.50;99.90;;;;;;5114142;28;20024;-71
2022/11/05 02:12:41;;;;;;;2.72;1.30;;;9.40;99.90;;;;;;5114504;28;20460;-70
2022/11/05 02:15:11;;;;;;;3.00;1.90;;;9.40;99.90;;;;;;5113969;28;20036;-71
2022/11/05 02:18:09;;;;;;;1.77;1.30;;;9.40;99.90;;;;;;5114452;28;20051;-71
2022/11/05 02:20:58;;;;;;;2.47;1.52;;;9.40;99.90;;;;;;5114502;28;20476;-71
2022/11/05 02:23:39;;;;;;;1.60;1.15;;;9.40;99.90;;;;;;5114211;28;20043;-71
2022/11/05 02:26:23;;;;;;;3.50;1.65;;;9.40;99.90;;;;;;5113643;28;20468;-70
2022/11/05 02:29:01;;;;;;;1.83;1.23;;;9.40;99.90;;;;;;5114405;28;20019;-71
2022/11/05 02:31:51;;;;;;;2.45;1.50;;;9.40;99.90;;;;;;5113031;28;20451;-71
2022/11/05 02:34:50;;;;;;;2.95;1.50;;;9.40;99.90;;;;;;5112879;28;20043;-72
2022/11/05 02:37:39;;;;;;;3.53;1.70;;;9.40;99.90;;;;;;5093380;28;20115;-71
2022/11/05 02:40:30;;;;;;;2.08;1.50;;;9.30;99.90;;;;;;5093297;28;20117;-71
2022/11/05 02:43:25;;;;;;;3.63;1.60;;;9.30;99.90;;;;;;5093401;28;20035;-71
2022/11/05 02:46:25;;;;;;;1.85;1.50;;;9.30;99.90;;;;;;5093342;28;20425;-72
2022/11/05 02:49:17;;;;;;;3.28;1.77;;;9.30;99.90;;;;;;5086159;28;20032;-71
2022/11/05 02:51:57;;;;;;;1.70;1.60;;;9.20;99.90;;;;;;5061506;28;20032;-71
2022/11/05 02:54:31;;;;;;;5.82;2.03;;;9.20;99.90;;;;;;5092973;28;20390;-71
2022/11/05 02:56:59;;;;;;;1.73;1.33;;;9.20;99.90;;;;;;5092999;28;20021;-71
2022/11/05 02:59:25;;;;;;;2.53;1.70;;;9.20;99.90;;;;;;5093252;28;20031;-72
2022/11/05 03:01:52;;;;;;;2.40;1.95;;;9.20;99.90;;;;;;5092885;28;20028;-71
2022/11/05 03:04:21;;;;;;;4.97;1.67;;;9.20;99.90;;;;;;5092027;28;20110;-71
2022/11/05 03:07:05;;;;;;;2.42;1.70;;;9.20;99.90;;;;;;5097098;28;20107;-71
2022/11/05 03:09:37;;;;;;;6.03;1.98;;;9.20;99.90;;;;;;5097973;28;20028;-71
2022/11/05 03:12:23;;;;;;;2.60;1.63;;;9.20;99.90;;;;;;5097021;28;20055;-70
2022/11/05 03:15:00;;;;;;;2.75;1.67;;;9.20;99.90;;;;;;5097671;28;20040;-72
2022/11/05 03:18:05;;;;;;;5.90;1.90;;;9.20;99.90;;;;;;5093066;28;20027;-70
2022/11/05 03:20:53;;;;;;;3.65;1.77;;;9.20;99.90;;;;;;5093188;28;20055;-70
2022/11/05 03:23:43;;;;;;;2.45;1.55;;;9.20;99.90;;;;;;5092557;28;20032;-70
2022/11/05 03:26:45;;;;;;;2.53;1.70;;;9.20;99.90;;;;;;5092486;28;20097;-71
2022/11/05 03:29:25;;;;;;;1.85;1.60;;;9.20;99.90;;;;;;5078862;28;20051;-70
2022/11/05 03:31:54;;;;;;;4.90;1.85;;;9.10;99.90;;;;;;5092879;28;20023;-70
2022/11/05 03:34:26;;;;;;;2.40;1.70;;;9.10;99.90;;;;;;5092004;28;20055;-70
2022/11/05 03:36:55;;;;;;;3.67;2.08;;;9.10;99.90;;;;;;5092489;28;20460;-71
2022/11/05 03:39:28;;;;;;;4.75;1.90;;;9.10;99.90;;;;;;5092535;28;20028;-70
2022/11/05 03:41:56;;;;;;;3.97;1.90;;;9.10;99.90;;;;;;5092612;28;20043;-71
2022/11/05 03:44:31;;;;;;;4.10;1.90;;;9.10;99.90;;;;;;5092423;28;20385;-71
2022/11/05 03:47:09;;;;;;;1.95;1.67;;;9.10;99.90;;;;;;5091875;28;20021;-70
2022/11/05 03:49:41;;;;;;;2.95;2.20;;;9.10;99.90;;;;;;5092554;28;20020;-70
2022/11/05 03:52:13;;;;;;;4.60;1.90;;;9.10;99.90;;;;;;5092110;28;20089;-71
2022/11/05 03:54:39;;;;;;;2.83;2.08;;;9.20;99.90;;;;;;5092477;28;20052;-71
2022/11/05 03:57:14;;;;;;;5.40;2.30;;;9.20;99.90;;;;;;5092002;28;20055;-72
2022/11/05 03:59:45;;;;;;;2.95;2.30;;;9.20;99.90;;;;;;5092553;28;20031;-71
2022/11/05 04:02:13;;;;;;;3.35;1.90;;;9.20;99.90;;;;;;5101885;28;20035;-71
2022/11/05 04:04:39;;;;;;;2.83;2.40;;;9.30;99.90;;;;;;5112685;28;20134;-70
2022/11/05 04:15:18;;;;;;;3.90;2.50;;;9.30;99.90;;;;;;5112063;28;20149;-71
2022/11/05 04:17:44;;;;;;;4.53;2.55;;;9.30;99.90;;;;;;5112591;28;20486;-72
2022/11/05 04:25:46;;;;;;;5.28;2.53;;;9.40;99.90;;;;;;5112565;28;20035;-71
2022/11/05 04:28:12;;;;;;;5.60;3.20;;;9.40;99.90;;;;;;5111906;28;20024;-71
2022/11/05 04:30:38;;;;;;;5.32;2.83;;;9.30;99.90;;;;;;5112512;28;20491;-71
2022/11/05 04:33:06;;;;;;;7.60;2.80;;;9.40;99.90;;;;;;5096750;28;20032;-71
2022/11/05 04:35:35;;;;;;;3.50;2.70;;;9.30;99.90;;;;;;5092081;28;20441;-71
2022/11/05 04:38:05;;;;;;;5.15;3.03;;;9.30;99.90;;;;;;5090711;28;20064;-70
2022/11/05 04:40:31;;;;;;;9.98;3.25;;;9.30;99.90;;;;;;5091615;28;20120;-70
2022/11/05 04:42:57;;;;;;;4.13;2.90;;;9.30;99.90;;;;;;5092000;28;20237;-70
2022/11/05 04:45:25;;;;;;;3.35;2.63;;;9.30;99.90;;;;;;5091565;28;20130;-72
2022/11/05 04:47:51;;;;;;;4.40;2.88;;;9.30;99.90;;;;;;5091982;28;20028;-71
2022/11/05 04:50:17;;;;;;;3.53;2.45;;;9.30;99.90;;;;;;5091479;28;20026;-70
2022/11/05 04:52:42;;;;;;;5.45;2.85;;;9.30;99.90;;;;;;5091869;28;20077;-71
2022/11/05 04:55:08;;;;;;;3.40;2.65;;;9.30;99.90;;;;;;5091280;28;20032;-71
2022/11/05 04:57:34;;;;;;;4.63;3.00;;;9.30;99.90;;;;;;5093786;28;20032;-71
2022/11/05 05:00:00;;;;;;;4.38;2.75;;;9.30;99.90;;;;;;5095603;28;20077;-71
2022/11/05 05:02:26;;;;;;;5.32;2.92;;;9.30;99.90;;;;;;5095238;28;20109;-71
2022/11/05 05:04:52;;;;;;;7.53;2.90;;;9.30;99.90;;;;;;5095592;28;20024;-70
2022/11/05 05:07:18;;;;;;;6.20;2.70;;;9.30;99.90;;;;;;5095112;28;20406;-71
2022/11/05 05:09:43;;;;;;;5.43;3.13;;;9.30;99.90;;;;;;5095388;28;20024;-71
2022/11/05 05:12:09;;;;;;;4.07;2.60;;;9.30;99.90;;;;;;5095022;28;20032;-78
2022/11/05 05:14:35;;;;;;;5.15;3.13;;;9.30;99.90;;;;;;5095323;28;20024;-71
2022/11/05 05:17:01;;;;;;;5.20;3.22;;;9.30;99.90;;;;;;5095317;28;20028;-71
2022/11/05 05:19:26;;;;;;;4.47;2.85;;;9.30;99.90;;;;;;5094802;28;20099;-70
2022/11/05 05:21:52;;;;;;;7.47;3.13;;;9.30;99.90;;;;;;5094775;28;20050;-71
2022/11/05 05:24:19;;;;;;;5.95;3.33;;;9.30;99.90;;;;;;5093389;28;20383;-71
2022/11/05 05:26:48;;;;;;;3.42;2.70;;;9.30;99.90;;;;;;5095056;28;20479;-71
2022/11/05 05:29:14;;;;;;;4.05;2.78;;;9.30;99.90;;;;;;5094628;28;20028;-71
2022/11/05 05:31:41;;;;;;;7.55;3.00;;;9.30;99.90;;;;;;5094802;28;20115;-71
2022/11/05 05:34:09;;;;;;;4.07;2.78;;;9.20;99.90;;;;;;5094761;28;20040;-71
2022/11/05 05:36:35;;;;;;;11.13;3.38;;;9.20;99.90;;;;;;5095015;28;20024;-71
2022/11/05 05:39:00;;;;;;;4.78;2.75;;;9.20;99.90;;;;;;5094783;28;20457;-71
2022/11/05 05:41:26;;;;;;;3.92;3.33;;;9.20;99.90;;;;;;5094300;28;20430;-71
2022/11/05 05:43:52;;;;;;;3.88;2.90;;;9.20;99.90;;;;;;5094629;28;20031;-71
2022/11/05 05:46:18;;;;;;;9.68;3.30;;;9.20;99.90;;;;;;5094359;28;20028;-71
2022/11/05 05:48:48;;;;;;;7.60;3.72;;;9.20;99.90;;;;;;5094811;28;20028;-71
2022/11/05 05:51:14;;;;;;;6.05;3.47;;;9.20;99.90;;;;;;5094273;28;20184;-70
2022/11/05 05:53:39;;;;;;;5.45;3.10;;;9.20;99.90;;;;;;5094620;28;20111;-70
2022/11/05 05:56:05;;;;;;;5.93;3.17;;;9.20;99.90;;;;;;5094206;28;20084;-72
2022/11/05 05:58:36;;;;;;;3.92;3.30;;;9.20;99.90;;;;;;5111758;28;20023;-72
2022/11/05 06:01:08;;;;;;;4.78;3.50;;;9.10;99.90;;;;;;5114830;28;20039;-72
2022/11/05 06:03:34;;;;;;;5.15;3.70;;;9.10;99.90;;;;;;5114696;28;20035;-70
2022/11/05 06:06:05;;;;;;;6.05;3.53;;;9.10;99.90;;;;;;5114625;28;20460;-72
2022/11/05 06:08:31;;;;;;;;;;;9.20;99.90;;;;;;5113569;28;20035;-71
2022/11/05 06:10:57;;;;;;;5.43;3.28;;;9.20;99.90;;;;;;5113372;28;19904;-72
2022/11/05 06:13:23;;;;;;;4.60;3.67;;;9.10;99.90;;;;;;5114184;28;20487;-71
2022/11/05 06:15:48;;;;;;;4.13;3.28;;;9.10;99.90;;;;;;5114586;28;20028;-72
2022/11/05 06:18:14;;;;;;;8.02;3.17;;;9.10;99.90;;;;;;5114065;28;20028;-74
2022/11/05 06:20:40;;;;;;;4.43;3.22;;;9.10;99.90;;;;;;5114577;28;20031;-71
2022/11/05 06:23:06;;;;;;;4.35;3.03;;;9.10;99.90;;;;;;5114395;28;20024;-70
2022/11/05 06:25:32;;;;;;;4.95;3.45;;;9.10;99.90;;;;;;5113671;28;20119;-71
2022/11/05 06:27:58;;;;;;;5.35;3.30;;;9.20;99.90;;;;;;5114339;28;20027;-70
2022/11/05 06:30:24;;;;;;;6.40;3.58;;;9.20;99.90;;;;;;5113779;28;20031;-72
2022/11/05 06:32:49;;;;;;;3.97;3.38;;;9.20;99.90;;;;;;5114090;28;20038;-70
2022/11/05 06:35:15;;;;;;;7.38;3.80;;;9.20;99.90;;;;;;5112988;28;20054;-75
2022/11/05 06:37:41;;;;;;;7.32;3.60;;;9.20;99.90;;;;;;5111732;28;20371;-72
2022/11/05 06:40:07;;;;;;;4.63;2.90;;;9.20;99.90;;;;;;5113708;28;20377;-71
2022/11/05 06:42:33;;;;;;;4.85;3.40;;;9.20;99.90;;;;;;5113529;28;20074;-70
2022/11/05 06:44:59;;;;;;;5.38;3.08;;;9.20;99.90;;;;;;5113802;28;20406;-71
2022/11/05 06:47:25;;;;;;;7.05;3.53;;;9.30;99.90;;;;;;5113735;28;20016;-70
2022/11/05 06:49:51;;;;;;;5.80;3.80;;;9.30;99.90;;;;;;5113888;28;20047;-70
2022/11/05 06:52:17;;;;;;;4.93;3.80;;;9.30;99.90;;;;;;5113701;28;20443;-70
2022/11/05 06:54:43;;;;;;;7.00;3.47;;;9.30;99.90;;;;;;5113853;28;20034;-70
2022/11/05 06:57:10;;;;;;;10.07;4.07;;;9.30;99.90;;;;;;5113433;28;20416;-71
2022/11/05 06:59:37;;;;;;;5.05;3.47;;;9.30;99.90;;;;;;5113252;28;20051;-71
2022/11/05 07:02:03;;;;;;;6.70;4.18;;;9.30;99.90;;;;;;5113612;28;20040;-70
2022/11/05 07:04:29;;;;;;;7.57;4.00;;;9.30;99.90;;;;;;5113132;28;20076;-71
2022/11/05 07:06:55;;;;;;;5.28;3.15;;;9.30;99.90;;;;;;5113540;28;20027;-71
2022/11/05 07:09:20;;;;;;;6.15;3.30;;;9.30;99.90;;;;;;5113125;28;20028;-71
2022/11/05 07:11:46;;;;;;;6.40;3.70;;;9.30;99.90;;;;;;5113804;28;20067;-71
2022/11/05 07:14:11;;;;;;;6.88;3.70;;;9.40;99.90;;;;;;5113072;28;20495;-71
2022/11/05 07:16:37;;;;;;;6.80;3.47;;;9.40;99.90;;;;;;5111631;28;20342;-70
2022/11/05 07:19:03;;;;;;;6.47;3.35;;;9.40;99.90;;;;;;5113352;28;20023;-71
2022/11/05 07:21:28;;;;;;;7.63;3.47;;;9.40;99.90;;;;;;5112932;28;20058;-71
2022/11/05 07:23:54;;;;;;;6.85;4.07;;;9.40;99.90;;;;;;5113163;28;20020;-72
2022/11/05 07:26:19;;;;;;;6.20;3.90;;;9.50;99.90;;;;;;5112963;28;20126;-72
2022/11/05 07:28:45;;;;;;;5.43;3.80;;;9.40;99.90;;;;;;5113372;28;20085;-71
2022/11/05 07:31:11;;;;;;;11.07;3.90;;;9.50;99.90;;;;;;5113090;28;20023;-71
2022/11/05 07:33:36;;;;;;;6.85;3.63;;;9.50;99.90;;;;;;5111086;28;20163;-71
2022/11/05 07:36:02;;;;;;;6.38;3.88;;;9.50;99.90;;;;;;5113348;28;20042;-71
2022/11/05 07:38:28;;;;;;;6.88;3.90;;;9.50;99.90;;;;;;5112484;28;20027;-72
2022/11/05 07:40:53;;;;;;;6.38;3.65;;;9.50;99.90;;;;;;5112694;28;20139;-71
2022/11/05 07:43:19;;;;;;;7.22;4.30;;;9.50;99.90;;;;;;5112943;28;20028;-70
2022/11/05 07:45:47;;;;;;;6.90;4.32;;;9.50;99.90;;;;;;5112671;28;20023;-71
2022/11/05 07:48:13;;;;;;;6.43;3.80;;;9.50;99.90;;;;;;5112397;28;20094;-70
2022/11/05 07:50:39;;;;;;;6.30;3.97;;;9.50;99.90;;;;;;5112498;28;20054;-70
2022/11/05 07:53:08;;;;;;;6.40;4.20;;;9.50;99.90;;;;;;5112805;28;20099;-70
2022/11/05 07:55:35;;;;;;;4.68;3.88;;;9.60;99.90;;;;;;5112632;28;20375;-71
2022/11/05 07:58:01;;;;;;;6.65;3.75;;;9.60;99.90;;;;;;5112676;28;20034;-71
2022/11/05 08:00:27;;;;;;;5.55;3.90;;;9.60;99.90;;;;;;5112342;28;20027;-71
2022/11/05 08:03:13;;;;;;;5.30;3.88;;;9.60;99.90;;;;;;5112614;28;20067;-71
2022/11/05 08:05:44;;;;;;;6.38;3.50;;;9.70;99.90;;;;;;5112218;28;20023;-71
2022/11/05 08:08:13;;;;;;;8.43;4.07;;;9.70;99.90;;;;;;5111146;28;20100;-71
2022/11/05 08:10:39;;;;;;;6.90;4.28;;;9.80;99.90;;;;;;5112497;28;20031;-71
2022/11/05 08:13:06;;;;;;;6.40;3.70;;;9.80;99.90;;;;;;5112313;28;20035;-71
2022/11/05 08:15:33;;;;;;;5.47;3.50;;;9.90;99.90;;;;;;5112206;28;20447;-71
2022/11/05 08:18:04;;;;;;;8.93;4.07;;;9.90;99.90;;;;;;5112419;28;20372;-72
2022/11/05 08:20:30;;;;;;;8.98;3.50;;;9.90;99.90;;;;;;5112493;28;20073;-71
2022/11/05 08:22:56;;;;;;;6.43;3.35;;;9.90;99.90;;;;;;5112526;28;20491;-71
2022/11/05 08:25:22;;;;;;;6.82;3.53;;;10.00;99.90;;;;;;5111266;28;20059;-70
2022/11/05 08:27:57;;;;;;;7.97;3.55;;;10.00;99.90;;;;;;5100561;28;20129;-72
2022/11/05 08:30:23;;;;;;;6.35;3.67;;;10.10;99.90;;;;;;5092261;28;20028;-70
2022/11/05 08:32:49;;;;;;;7.35;3.20;;;10.20;99.90;;;;;;5094728;28;20028;-71
2022/11/05 08:35:14;;;;;;;7.13;3.42;;;10.30;99.90;;;;;;5095964;28;20047;-71
2022/11/05 08:37:40;;;;;;;7.15;3.35;;;10.30;99.90;;;;;;5095722;28;20039;-72
2022/11/05 08:40:06;;;;;;;7.43;4.00;;;10.40;99.90;;;;;;5096073;28;20028;-72
2022/11/05 08:42:32;;;;;;;5.88;3.33;;;10.50;99.90;;;;;;5095665;28;20030;-71
2022/11/05 08:44:58;;;;;;;6.07;3.05;;;10.50;99.90;;;;;;5095827;28;20495;-71
2022/11/05 08:47:24;;;;;;;4.10;3.40;;;10.60;99.90;;;;;;5095646;28;20031;-71
2022/11/05 08:49:49;;;;;;;5.43;2.78;;;10.60;99.90;;;;;;5095909;28;20089;-71
2022/11/05 08:52:15;;;;;;;6.03;3.13;;;10.60;99.90;;;;;;5095934;28;20468;-71
2022/11/05 08:54:42;;;;;;;5.70;2.97;;;10.60;99.90;;;;;;5095566;28;20024;-71
2022/11/05 08:57:08;;;;;;;4.57;3.03;;;10.60;99.90;;;;;;5095895;28;20077;-72
2022/11/05 08:59:33;;;;;;;4.95;3.22;;;10.70;99.90;;;;;;5095147;28;20031;-72
2022/11/05 09:01:59;;;;;;;5.90;3.35;;;10.70;99.90;;;;;;5094256;28;20032;-72
2022/11/05 09:04:25;;;;;;;5.13;3.05;;;10.70;99.90;;;;;;5095681;28;20073;-71
2022/11/05 09:06:51;;;;;;;6.88;3.00;;;10.70;99.90;;;;;;5095484;28;20028;-71
2022/11/05 09:09:16;;;;;;;5.05;3.30;;;10.70;99.90;;;;;;5095764;28;20028;-70
2022/11/05 09:11:42;;;;;;;6.22;3.08;;;10.70;99.90;;;;;;5094687;28;20031;-71
2022/11/05 09:14:08;;;;;;;5.45;3.20;;;10.70;99.90;;;;;;5095483;28;20030;-72
2022/11/05 09:16:35;;;;;;;6.03;3.38;;;10.70;99.90;;;;;;5095380;28;20028;-70
2022/11/05 09:19:04;;;;;;;9.07;3.60;;;10.70;99.90;;;;;;5095365;28;20043;-70
2022/11/05 09:21:30;;;;;;;8.27;4.00;;;10.70;99.90;;;;;;5094611;28;20032;-71
2022/11/05 09:23:56;;;;;;;5.10;3.60;;;10.70;99.90;;;;;;5095243;28;20032;-72
2022/11/05 09:26:22;;;;;;;5.10;3.08;;;10.70;99.90;;;;;;5094948;28;20064;-72
2022/11/05 09:28:47;;;;;;;5.30;3.33;;;10.70;99.90;;;;;;5094561;28;20103;-72
2022/11/05 09:31:13;;;;;;;9.23;3.80;;;10.80;99.90;;;;;;5095179;28;20028;-71
2022/11/05 09:33:40;;;;;;;6.88;3.80;;;10.80;99.90;;;;;;5094252;28;20108;-72
2022/11/05 09:36:07;;;;;;;8.73;4.35;;;10.80;99.90;;;;;;5095016;28;20024;-71
2022/11/05 09:38:33;;;;;;;6.40;3.72;;;10.80;99.90;;;;;;5094451;28;20461;-71
2022/11/05 09:41:22;;;;;;;8.75;4.68;;;10.80;99.90;;;;;;5114308;28;20383;-72
2022/11/05 09:43:56;;;;;;;12.05;4.40;;;10.80;99.90;;;;;;5114107;28;20028;-72
2022/11/05 09:46:25;;;;;;;8.05;4.13;;;10.90;99.90;;;;;;5115253;28;20020;-72
2022/11/05 09:49:01;;;;;;;5.95;3.55;;;10.90;99.90;;;;;;5114757;28;20055;-71
2022/11/05 09:51:26;;;;;;;4.85;3.70;;;11.00;99.90;;;;;;5115209;28;20065;-71
2022/11/05 09:53:52;;;;;;;7.32;3.90;;;11.00;99.80;;;;;;5114622;28;20051;-72
2022/11/05 09:56:25;;;;;;;7.47;4.55;;;11.00;99.80;;;;;;5115041;28;20030;-73
2022/11/05 09:59:16;;;;;;;6.43;4.07;;;11.10;99.80;;;;;;5114564;28;20036;-72
2022/11/05 10:01:44;;;;;;;9.48;3.90;;;11.10;99.70;;;;;;5114477;28;20031;-71
2022/11/05 10:04:18;;;;;;;7.25;4.13;;;11.20;99.60;;;;;;5114825;28;20111;-71
2022/11/05 10:06:56;;;;;;;5.47;3.65;;;11.30;99.40;;;;;;5114459;28;20102;-72
2022/11/05 10:09:37;;;;;;;6.93;4.15;;;11.30;99.50;;;;;;5114811;28;20020;-72
2022/11/05 10:12:10;;;;;;;10.40;4.30;;;11.30;99.40;;;;;;5114476;28;20384;-71
2022/11/05 10:14:41;;;;;;;4.72;4.20;;;11.40;99.10;;;;;;5114110;28;20107;-72
2022/11/05 10:17:26;;;;;;;6.78;4.00;;;11.50;98.70;;;;;;5114385;28;20015;-72
2022/11/05 10:20:07;;;;;;;6.20;4.15;;;11.50;98.40;;;;;;5100359;28;20043;-72
2022/11/05 10:22:32;;;;;;;5.63;4.05;;;11.50;98.30;;;;;;5093564;28;20055;-73
2022/11/05 10:24:59;;;;;;;6.95;4.18;;;11.60;98.80;;;;;;5094213;28;20461;-71
2022/11/05 10:27:36;;;;;;;4.25;3.63;;;11.70;98.40;;;;;;5094363;28;20527;-71
2022/11/05 10:30:03;;;;;;;5.97;3.90;;;11.70;98.10;;;;;;5094080;28;20051;-71
2022/11/05 10:32:36;;;;;;;5.85;3.90;;;11.70;98.00;;;;;;5093983;28;20066;-71
2022/11/05 10:35:06;;;;;;;7.60;4.38;;;11.80;97.90;;;;;;5092632;28;20044;-71
2022/11/05 10:37:33;;;;;;;6.63;4.07;;;11.80;98.10;;;;;;5094219;28;20028;-78
2022/11/05 10:39:59;;;;;;;8.25;4.45;;;11.90;97.80;;;;;;5093562;28;20028;-72
2022/11/05 10:42:36;;;;;;;8.88;4.35;;;11.90;97.60;;;;;;5093647;28;20043;-72
2022/11/05 10:45:29;;;;;;;5.68;4.25;;;12.00;97.80;;;;;;5093761;28;20020;-71
2022/11/05 10:48:17;;;;;;;7.00;4.63;;;12.00;98.10;;;;;;5091799;28;20020;-72
2022/11/05 10:50:44;;;;;;;6.80;4.50;;;12.00;97.90;;;;;;5092126;28;20089;-71
2022/11/05 10:53:25;;;;;;;8.65;4.82;;;12.00;98.30;;;;;;5093577;28;20028;-71
2022/11/05 10:55:52;;;;;;;8.80;4.70;;;12.00;97.80;;;;;;5092990;28;20024;-71
2022/11/05 10:58:29;;;;;;;6.03;4.22;;;12.00;98.10;;;;;;5092229;28;20028;-72
2022/11/05 11:00:55;;;;;;;7.65;4.50;;;12.00;97.90;;;;;;5092995;28;20115;-72
2022/11/05 11:03:47;;;;;;;10.18;4.57;;;12.00;97.90;;;;;;5093263;28;20102;-71
2022/11/05 11:06:24;;;;;;;8.82;4.72;;;12.00;97.80;;;;;;5093603;28;20062;-71
2022/11/05 11:08:52;;;;;;;8.25;5.03;;;12.10;98.10;;;;;;5091638;28;20040;-71
2022/11/05 11:11:39;;;;;;;8.65;4.65;;;12.10;98.20;;;;;;5092950;28;20039;-70
2022/11/05 11:14:16;;;;;;;6.63;4.80;;;12.10;98.10;;;;;;5093259;28;20059;-71
2022/11/05 11:16:44;;;;;;;9.70;5.85;;;12.00;98.70;;;;;;5093640;28;20028;-71
2022/11/05 11:19:29;;;;;;;7.78;5.65;;;12.00;99.20;;;;;;5095550;28;20035;-71
2022/11/05 11:22:04;;;;;;;9.02;6.03;;;12.00;99.40;;;;;;5094325;28;20460;-72
2022/11/05 11:24:36;;;;;;;8.23;5.80;;;12.00;99.10;;;;;;5094101;28;20468;-71
2022/11/05 11:27:05;;;;;;;7.82;5.72;;;12.00;99.20;;;;;;5093297;28;20055;-71
2022/11/05 11:29:34;;;;;;;7.35;4.82;;;11.90;99.30;;;;;;5093109;28;20070;-71
2022/11/05 11:32:01;;;;;;;8.63;5.85;;;11.90;99.50;;;;;;5092197;28;20441;-71
2022/11/05 11:34:33;;;;;;;7.90;5.63;;;11.90;99.50;;;;;;5093107;28;20197;-71
2022/11/05 11:37:13;;;;;;;10.32;5.82;;;11.80;99.90;;;;;;5092504;28;20054;-71
2022/11/05 11:39:42;;;;;;;8.00;5.80;;;11.70;99.90;;;;;;5092309;28;20028;-72
2022/11/05 11:42:18;;;;;;;8.63;6.15;;;11.70;99.90;;;;;;5095074;28;20500;-71
2022/11/05 11:44:46;;;;;;;7.40;5.43;;;11.60;99.90;;;;;;5092543;28;20103;-71
2022/11/05 11:47:15;;;;;;;10.38;6.07;;;11.60;99.90;;;;;;5092702;28;20030;-72
2022/11/05 11:49:41;;;;;;;7.95;6.25;;;11.60;99.90;;;;;;5090830;28;20081;-72
2022/11/05 11:52:28;;;;;;;9.80;6.32;;;11.60;99.90;;;;;;5092396;28;20115;-71
2022/11/05 11:55:09;;;;;;;8.88;5.22;;;11.50;99.90;;;;;;5092171;28;20139;-72
2022/11/05 11:57:43;;;;;;;8.60;5.50;;;11.50;99.90;;;;;;5091285;28;20116;-72
2022/11/05 12:00:10;;;;;;;8.57;5.97;;;11.50;99.90;;;;;;5092640;28;20457;-71
2022/11/05 12:02:38;;;;;;;8.82;5.93;;;11.50;99.90;;;;;;5092318;28;20044;-70
2022/11/05 12:05:29;;;;;;;7.00;5.22;;;11.50;99.90;;;;;;5091119;28;20024;-71
2022/11/05 12:08:13;;;;;;;10.80;5.85;;;11.50;99.90;;;;;;5091386;28;20075;-71
2022/11/05 12:10:41;;;;;;;7.05;5.40;;;11.50;99.90;;;;;;5092159;28;20338;-71
2022/11/05 12:13:19;;;;;;;7.97;5.72;;;11.40;99.90;;;;;;5092389;28;20081;-71
2022/11/05 12:16:23;;;;;;;8.40;5.75;;;11.50;99.90;;;;;;5092151;28;20078;-71
2022/11/05 12:19:07;;;;;;;9.10;5.38;;;11.50;99.90;;;;;;5091594;28;20028;-72
2022/11/05 12:21:59;;;;;;;8.35;4.93;;;11.50;99.90;;;;;;5092248;28;20142;-71
2022/11/05 12:24:59;;;;;;;9.90;4.60;;;11.50;99.90;;;;;;5089839;28;20058;-72
2022/11/05 12:27:49;;;;;;;8.02;4.65;;;11.50;99.90;;;;;;5104749;28;20070;-71
2022/11/05 12:30:20;;;;;;;5.90;4.47;;;11.60;99.90;;;;;;5112624;28;20065;-72
2022/11/05 12:33:21;;;;;;;4.65;3.50;;;11.50;99.90;;;;;;5112208;28;20031;-71
2022/11/05 12:36:04;;;;;;;3.38;2.70;;;11.50;99.90;;;;;;5087759;28;20063;-70
2022/11/05 12:38:59;;;;;;;5.88;3.10;;;11.60;99.20;;;;;;5112292;28;20019;-72
2022/11/05 12:41:30;;;;;;;3.72;2.33;;;11.60;99.00;;;;;;5112679;28;20031;-72
2022/11/05 12:44:02;;;;;;;3.90;2.58;;;11.60;98.90;;;;;;5112011;28;20062;-70
2022/11/05 12:46:38;;;;;;;6.72;2.30;;;11.60;99.00;;;;;;5112064;28;20028;-71
2022/11/05 12:49:31;;;;;;;4.10;1.90;;;11.60;98.80;;;;;;5111826;28;20329;-71
2022/11/05 12:52:04;;;;;;;3.33;1.67;;;11.70;98.50;;;;;;5111533;28;20448;-71
2022/11/05 12:54:57;;;;;;;5.20;2.03;;;11.70;97.70;;;;;;5112523;28;20032;-71
2022/11/05 12:57:25;;;;;;;4.25;1.92;;;11.70;97.50;;;;;;5111185;28;20379;-71
2022/11/05 12:59:57;;;;;;;2.17;1.90;;;11.80;97.50;;;;;;5111830;28;20039;-72
2022/11/05 13:02:37;;;;;;;2.80;1.88;;;11.70;97.00;;;;;;5112145;28;20118;-71
2022/11/05 13:05:16;;;;;;;3.97;1.80;;;11.70;96.80;;;;;;5111818;28;20091;-73
2022/11/05 13:08:00;;;;;;;2.13;1.55;;;11.70;96.80;;;;;;5112015;28;20034;-72
2022/11/05 13:10:31;;;;;;;4.95;2.65;;;11.80;96.70;;;;;;5111997;28;20051;-72
2022/11/05 13:13:10;;;;;;;3.08;1.90;;;11.70;96.30;;;;;;5111714;28;20518;-71
2022/11/05 13:15:44;;;;;;;3.53;2.00;;;11.80;96.20;;;;;;5112191;28;20087;-71
2022/11/05 13:18:16;;;;;;;3.50;1.90;;;11.80;96.10;;;;;;5113814;28;20039;-72
2022/11/05 13:20:43;;;;;;;;;;;11.70;96.00;;;;;;5116537;28;20107;-71
2022/11/05 13:23:35;;;;;;;2.80;1.83;;;11.70;96.20;;;;;;5114922;28;19912;-71
2022/11/05 13:26:16;;;;;;;3.22;2.10;;;11.70;96.00;;;;;;5114966;28;20023;-71
2022/11/05 13:28:45;;;;;;;3.40;2.20;;;11.70;96.30;;;;;;5115653;28;20374;-72
2022/11/05 13:31:16;;;;;;;3.47;2.33;;;11.80;96.40;;;;;;5115437;28;20032;-71
2022/11/05 13:33:44;;;;;;;2.92;2.00;;;11.70;96.10;;;;;;5115250;28;20048;-71
2022/11/05 13:39:21;;;;;;;2.70;1.88;;;11.80;96.10;;;;;;5114569;28;20066;-70
2022/11/05 13:41:59;;;;;;;2.22;1.95;;;11.80;96.20;;;;;;5114461;28;20040;-72
2022/11/05 13:44:31;;;;;;;5.05;2.28;;;11.80;96.10;;;;;;5115263;28;20027;-70
2022/11/05 13:47:05;;;;;;;;;;;11.70;96.30;;;;;;5114934;28;20029;-71
2022/11/05 13:50:08;;;;;;;4.65;2.30;;;11.80;96.30;;;;;;5115163;28;19904;-72
2022/11/05 13:52:52;;;;;;;3.65;2.15;;;11.80;96.00;;;;;;5115251;28;20059;-72
2022/11/05 13:55:18;;;;;;;4.65;2.13;;;11.80;95.90;;;;;;5115117;28;20027;-73